Time;durP1;ratioP1;P1;durP2;ratioP2;P2;SDS_P1;SDS_P2;PMS_P1;PMS_P2;Temp;Humidity;BMP_temperature;BMP_pressure;BME280_temperature;BME280_humidity;BME280_pressure;Samples;Min_cycle;Max_cycle;Signal;HPM_P1;HPM_P2
2023/01/18 00:00:05;;;;;;;24.80;14.17;;;;;;;-2.07;93.34;98984.22;5031799;28;20524;-55
2023/01/18 00:02:30;;;;;;;28.67;14.13;;;;;;;-2.08;93.34;98992.97;5029973;28;20031;-56
2023/01/18 00:04:56;;;;;;;24.47;14.27;;;;;;;-2.07;93.15;98994.59;5027194;28;20112;-55
2023/01/18 00:07:21;;;;;;;27.97;13.90;;;;;;;-2.09;93.27;98980.09;5029063;28;20574;-56
2023/01/18 00:09:46;;;;;;;24.33;13.70;;;;;;;-2.10;93.04;98989.69;5027727;28;20096;-55
2023/01/18 00:12:12;;;;;;;24.97;13.20;;;;;;;-2.10;93.02;98981.88;5029098;28;20037;-56
2023/01/18 00:14:37;;;;;;;25.47;13.70;;;;;;;-2.11;93.20;98980.25;5023953;28;20037;-55
2023/01/18 00:17:02;;;;;;;25.37;13.30;;;;;;;-2.14;92.99;98988.28;5031796;28;20034;-56
2023/01/18 00:19:27;;;;;;;26.67;13.30;;;;;;;-2.15;92.93;98991.81;5032636;28;20393;-56
2023/01/18 00:21:54;;;;;;;23.77;13.53;;;;;;;-2.14;93.47;98990.06;5023220;28;20052;-56
2023/01/18 00:24:21;;;;;;;24.30;13.20;;;;;;;-2.15;92.99;98991.81;5031272;28;20420;-56
2023/01/18 00:26:47;;;;;;;24.13;13.00;;;;;;;-2.16;93.02;98990.19;5027505;28;20037;-55
2023/01/18 00:29:13;;;;;;;21.83;13.27;;;;;;;-2.17;93.58;98994.53;5032718;28;20048;-55
2023/01/18 00:31:39;;;;;;;25.27;13.23;;;;;;;-2.17;93.08;98998.94;5026221;28;20104;-55
2023/01/18 00:34:05;;;;;;;27.17;13.93;;;;;;;-2.18;93.69;99002.44;5024466;28;20041;-56
2023/01/18 00:36:31;;;;;;;24.83;13.70;;;;;;;-2.20;93.19;99005.19;5025965;28;20026;-56
2023/01/18 00:38:57;;;;;;;26.63;13.93;;;;;;;-2.20;93.39;99004.34;5031563;28;20423;-55
2023/01/18 00:41:22;;;;;;;25.93;13.27;;;;;;;-2.19;93.45;99011.19;5026081;28;20041;-56
2023/01/18 00:43:48;;;;;;;26.67;14.10;;;;;;;-2.22;93.83;99007.06;5028129;28;20033;-56
2023/01/18 00:46:26;;;;;;;27.17;13.43;;;;;;;-2.20;93.69;99009.53;5026417;28;20050;-55
2023/01/18 00:48:53;;;;;;;25.07;13.57;;;;;;;-2.23;93.89;99004.63;5025733;28;20037;-55
2023/01/18 00:51:21;;;;;;;25.37;13.00;;;;;;;-2.21;94.30;99007.91;5030158;28;20029;-56
2023/01/18 00:53:46;;;;;;;28.03;13.33;;;;;;;-2.23;94.40;99010.63;5028247;28;20481;-55
2023/01/18 00:56:15;;;;;;;23.60;12.77;;;;;;;-2.26;93.88;99010.03;5026107;28;20034;-55
2023/01/18 00:58:41;;;;;;;24.00;13.10;;;;;;;-2.24;93.69;99010.72;5028483;28;20041;-54
2023/01/18 01:01:08;;;;;;;27.03;13.67;;;;;;;-2.26;93.64;99008.28;5032870;28;20033;-56
2023/01/18 01:06:44;;;;;;;24.90;12.97;;;;;;;-2.25;94.02;99014.28;5007428;28;20527;-56
2023/01/18 01:09:11;;;;;;;22.50;12.23;;;;;;;-2.26;93.58;99016.06;5008045;28;20080;-56
2023/01/18 01:11:37;;;;;;;22.77;12.63;;;;;;;-2.24;93.71;99018.53;5018749;28;20033;-56
2023/01/18 01:27:41;;;;;;;22.63;12.33;;;;;;;-2.31;93.20;99024.22;5021686;28;20091;-55
2023/01/18 01:30:07;;;;;;;26.00;12.67;;;;;;;-2.32;93.24;99022.56;5024331;28;20416;-56
2023/01/18 01:32:33;;;;;;;25.97;12.33;;;;;;;-2.32;93.91;99021.75;5029269;28;20029;-54
2023/01/18 01:34:58;;;;;;;24.37;11.83;;;;;;;-2.36;93.65;99023.75;5025759;28;20462;-55
2023/01/18 01:37:23;;;;;;;24.03;13.50;;;;;;;-2.37;93.87;99029.91;5024356;28;20021;-56
2023/01/18 01:39:48;;;;;;;23.60;11.87;;;;;;;-2.40;93.57;99035.34;5024158;28;20474;-56
2023/01/18 01:42:14;;;;;;;22.47;13.07;;;;;;;-2.42;94.02;99034.63;5023505;28;20021;-55
2023/01/18 01:44:44;;;;;;;24.77;12.53;;;;;;;-2.46;93.70;99041.84;5024839;28;20029;-55
2023/01/18 01:47:25;;;;;;;24.10;12.77;;;;;;;-2.43;94.40;99048.56;5024959;28;20493;-55
2023/01/18 01:49:57;;;;;;;24.20;13.07;;;;;;;-2.49;94.10;99047.28;5029315;28;20168;-56
2023/01/18 01:52:29;;;;;;;23.50;12.83;;;;;;;-2.48;94.17;99048.09;5027441;28;20036;-56
2023/01/18 01:55:03;;;;;;;24.70;12.13;;;;;;;-2.46;93.90;99051.41;5024381;28;20072;-56
2023/01/18 01:57:46;;;;;;;22.93;12.63;;;;;;;-2.44;94.18;99050.34;5025403;28;20037;-56
2023/01/18 02:00:18;;;;;;;26.33;12.27;;;;;;;-2.47;93.99;99060.16;5030452;28;20033;-58
2023/01/18 02:02:47;;;;;;;22.63;12.50;;;;;;;-2.49;93.78;99057.69;5022101;28;20049;-56
2023/01/18 02:05:15;;;;;;;24.57;12.80;;;;;;;-2.49;93.80;99056.84;5024840;28;20060;-57
2023/01/18 02:07:41;;;;;;;24.20;13.33;;;;;;;-2.49;94.09;99051.66;5029848;28;20037;-57
2023/01/18 02:10:07;;;;;;;26.80;12.77;;;;;;;-2.50;94.48;99055.19;5027496;28;20074;-56
2023/01/18 02:12:35;;;;;;;22.67;12.50;;;;;;;-2.51;94.36;99043.97;5028195;28;20112;-56
2023/01/18 02:15:01;;;;;;;24.53;13.17;;;;;;;-2.52;94.24;99051.91;5031165;28;20053;-56
2023/01/18 02:17:39;;;;;;;24.13;12.73;;;;;;;-2.52;94.68;99052.72;5027742;28;20105;-56
2023/01/18 02:20:44;;;;;;;28.47;13.10;;;;;;;-2.60;95.01;99037.78;5028160;28;20033;-57
2023/01/18 02:23:33;;;;;;;26.97;13.13;;;;;;;-2.53;94.52;99050.25;5022002;28;20386;-56
2023/01/18 02:26:36;;;;;;;26.23;12.73;;;;;;;-2.54;94.74;99048.59;5020948;28;20022;-57
2023/01/18 02:29:14;;;;;;;22.90;12.93;;;;;;;-2.59;94.32;99042.00;5016639;28;20042;-58
2023/01/18 02:32:03;;;;;;;25.10;13.13;;;;;;;-2.59;94.22;99048.97;5021707;28;20109;-56
2023/01/18 02:34:53;;;;;;;24.87;13.17;;;;;;;-2.63;94.28;99050.97;5026216;28;20044;-57
2023/01/18 02:37:31;;;;;;;22.90;12.33;;;;;;;-2.66;94.67;99056.41;5027511;28;20112;-57
2023/01/18 02:40:12;;;;;;;23.37;13.00;;;;;;;-2.73;94.61;99055.22;5020256;28;20075;-57
2023/01/18 02:48:19;;;;;;;24.93;12.73;;;;;;;-2.80;94.76;99070.47;5026523;28;20121;-59
2023/01/18 02:50:44;;;;;;;24.23;13.30;;;;;;;-2.82;94.99;99074.13;5027231;28;20030;-57
2023/01/18 02:53:13;;;;;;;26.53;13.30;;;;;;;-2.85;95.17;99078.59;5027917;28;20079;-57
2023/01/18 02:55:45;;;;;;;23.90;13.47;;;;;;;-2.82;95.49;99074.13;5024429;28;20101;-56
2023/01/18 02:58:32;;;;;;;23.98;12.70;;;;;;;-2.79;95.74;99073.88;5026204;28;20057;-57
2023/01/18 03:01:38;;;;;;;25.80;13.67;;;;;;;-2.80;95.91;99080.84;5025431;28;20041;-57
2023/01/18 03:04:11;;;;;;;23.53;12.80;;;;;;;-2.85;95.30;99073.38;5030161;28;20084;-57
2023/01/18 03:06:41;;;;;;;23.03;13.03;;;;;;;-2.86;95.53;99074.34;5032013;28;20038;-56
2023/01/18 03:09:07;;;;;;;24.87;12.80;;;;;;;-2.90;95.61;99075.53;5020931;28;20033;-57
2023/01/18 03:11:43;;;;;;;24.03;13.07;;;;;;;-2.87;95.65;99069.25;5029432;28;20473;-57
2023/01/18 03:14:39;;;;;;;22.67;12.43;;;;;;;-2.86;96.01;99082.13;5027517;28;20400;-57
2023/01/18 03:17:21;;;;;;;24.13;12.40;;;;;;;-2.93;95.71;99078.34;5025281;28;20900;-57
2023/01/18 03:20:06;;;;;;;22.83;12.60;;;;;;;-2.97;95.64;99069.16;5020247;28;20026;-56
2023/01/18 03:25:51;;;;;;;22.40;13.13;;;;;;;-2.99;95.27;99079.66;5027664;28;20036;-56
2023/01/18 03:34:08;;;;;;;21.30;12.13;;;;;;;-2.97;95.92;99076.94;5028351;28;20044;-57
2023/01/18 03:36:45;;;;;;;26.13;12.80;;;;;;;-2.98;95.53;99073.53;5029579;28;20026;-56
2023/01/18 03:39:19;;;;;;;24.37;12.53;;;;;;;-2.96;95.41;99081.19;5026418;28;20033;-57
2023/01/18 03:41:48;;;;;;;23.80;13.20;;;;;;;-2.98;95.51;99077.88;5014824;28;20033;-57
2023/01/18 03:44:24;;;;;;;24.73;13.07;;;;;;;-2.96;95.34;99086.38;5030911;28;20393;-56
2023/01/18 03:46:50;;;;;;;23.93;12.83;;;;;;;-2.94;95.20;99089.69;5025347;28;20132;-57
2023/01/18 03:49:17;;;;;;;22.47;13.50;;;;;;;-2.95;95.38;99092.38;5019668;28;20562;-56
2023/01/18 03:52:04;;;;;;;24.03;13.27;;;;;;;-2.97;95.66;99095.94;5022585;28;20044;-57
2023/01/18 03:54:39;;;;;;;25.13;13.70;;;;;;;-3.02;95.58;99102.38;5028939;28;20376;-56
2023/01/18 03:57:25;;;;;;;24.30;14.20;;;;;;;-3.05;96.21;99111.25;5031531;28;20022;-55
2023/01/18 03:59:51;;;;;;;23.27;13.17;;;;;;;-3.11;96.39;99109.13;5030653;28;20435;-57
2023/01/18 04:02:18;;;;;;;24.37;13.43;;;;;;;-3.12;96.17;99123.84;5026786;28;20030;-57
2023/01/18 04:04:44;;;;;;;24.33;13.90;;;;;;;-3.13;96.27;99127.38;5021357;28;20056;-57
2023/01/18 04:07:09;;;;;;;27.03;14.37;;;;;;;-3.13;96.54;99124.78;5019168;28;20112;-56
2023/01/18 04:09:34;;;;;;;25.57;14.43;;;;;;;-3.09;96.42;99127.16;5029192;28;20068;-56
2023/01/18 04:11:59;;;;;;;25.87;14.47;;;;;;;-3.08;96.78;99128.78;5023416;28;20109;-56
2023/01/18 04:14:25;;;;;;;26.73;15.17;;;;;;;-3.11;96.57;99128.09;5027608;28;20021;-57
2023/01/18 04:16:50;;;;;;;27.67;14.33;;;;;;;-3.11;96.65;99130.69;5030265;28;20045;-56
2023/01/18 04:19:16;;;;;;;28.07;14.67;;;;;;;-3.10;96.75;99128.94;5032058;28;20025;-55
2023/01/18 04:21:41;;;;;;;27.60;14.40;;;;;;;-3.11;96.51;99124.69;5021145;28;20057;-56
2023/01/18 04:24:06;;;;;;;27.67;14.30;;;;;;;-3.11;96.68;99135.88;5031965;28;20034;-56
2023/01/18 04:26:33;;;;;;;28.40;14.80;;;;;;;-3.15;96.62;99136.22;5029784;28;20034;-56
2023/01/18 04:28:59;;;;;;;27.97;15.40;;;;;;;-3.12;96.64;99138.56;5029093;28;20044;-56
2023/01/18 04:31:24;;;;;;;26.87;14.50;;;;;;;-3.13;96.39;99136.94;5032336;28;20025;-58
2023/01/18 04:33:50;;;;;;;22.73;14.10;;;;;;;-3.15;96.81;99134.44;5026668;28;20030;-56
2023/01/18 04:36:16;;;;;;;27.10;14.90;;;;;;;-3.16;97.05;99143.16;5022595;28;20026;-56
2023/01/18 04:38:42;;;;;;;26.40;15.20;;;;;;;-3.18;97.05;99139.88;5027335;28;20534;-55
2023/01/18 04:41:07;;;;;;;26.47;14.47;;;;;;;-3.21;97.06;99134.91;5018762;28;20112;-57
2023/01/18 04:43:32;;;;;;;29.70;14.47;;;;;;;-3.20;97.31;99139.16;5025325;28;20026;-55
2023/01/18 04:45:57;;;;;;;29.23;15.40;;;;;;;-3.20;97.26;99146.94;5019277;28;20555;-57
2023/01/18 04:48:24;;;;;;;27.60;15.00;;;;;;;-3.27;97.36;99141.38;5029743;28;20033;-59
2023/01/18 04:50:50;;;;;;;28.77;16.20;;;;;;;-3.20;97.53;99151.28;5028865;28;20473;-57
2023/01/18 04:53:16;;;;;;;28.77;15.00;;;;;;;-3.22;97.56;99148.81;5031532;28;20041;-57
2023/01/18 04:55:43;;;;;;;25.97;15.00;;;;;;;-3.20;97.38;99156.47;5020865;28;20072;-58
2023/01/18 04:58:09;;;;;;;28.13;15.33;;;;;;;-3.21;97.53;99149.66;5023514;28;20041;-56
2023/01/18 05:00:38;;;;;;;28.87;15.23;;;;;;;-3.20;97.57;99153.88;5029992;28;20093;-56
2023/01/18 05:03:04;;;;;;;30.70;15.93;;;;;;;-3.23;97.57;99147.16;5021703;28;20493;-57
2023/01/18 05:05:29;;;;;;;28.93;15.40;;;;;;;-3.22;97.39;99158.38;5019390;28;20060;-56
2023/01/18 05:07:55;;;;;;;27.17;15.87;;;;;;;-3.22;97.57;99164.38;5022781;28;20090;-56
2023/01/18 05:10:20;;;;;;;27.23;15.40;;;;;;;-3.25;97.68;99164.59;5030441;28;20029;-56
2023/01/18 05:12:46;;;;;;;30.27;16.37;;;;;;;-3.23;97.62;99165.31;5030101;28;20037;-56
2023/01/18 05:15:11;;;;;;;29.30;16.00;;;;;;;-3.22;97.69;99174.75;5026271;28;20091;-56
2023/01/18 05:17:36;;;;;;;30.77;16.63;;;;;;;-3.22;97.90;99172.16;5027905;28;20051;-56
2023/01/18 05:20:03;;;;;;;29.30;16.33;;;;;;;-3.22;97.78;99172.16;5026209;28;20397;-57
2023/01/18 05:22:28;;;;;;;34.17;17.77;;;;;;;-3.22;97.50;99179.91;5030033;28;20116;-57
2023/01/18 05:24:54;;;;;;;27.00;15.77;;;;;;;-3.23;97.72;99183.47;5020686;28;20120;-57
2023/01/18 05:27:19;;;;;;;27.83;16.43;;;;;;;-3.21;97.80;99183.34;5027254;28;20088;-56
2023/01/18 05:29:47;;;;;;;25.97;15.57;;;;;;;-3.21;97.79;99186.75;5025204;28;20033;-56
2023/01/18 05:32:12;;;;;;;30.97;16.60;;;;;;;-3.22;97.98;99187.69;5025608;28;20025;-57
2023/01/18 05:34:39;;;;;;;29.83;16.50;;;;;;;-3.27;97.99;99177.69;5022345;28;20030;-57
2023/01/18 05:37:04;;;;;;;32.83;17.60;;;;;;;-3.25;97.80;99190.53;5020141;28;20042;-57
2023/01/18 05:39:30;;;;;;;31.00;16.80;;;;;;;-3.27;97.95;99192.41;5027432;28;20036;-56
2023/01/18 05:41:55;;;;;;;28.23;16.47;;;;;;;-3.27;98.04;99195.00;5017630;28;20119;-57
2023/01/18 05:44:21;;;;;;;29.70;16.87;;;;;;;-3.26;98.06;99204.44;5021036;28;20113;-57
2023/01/18 05:46:46;;;;;;;27.70;16.60;;;;;;;-3.26;98.10;99204.44;5023210;28;20538;-57
2023/01/18 05:49:11;;;;;;;28.17;17.20;;;;;;;-3.29;97.95;99210.69;5021402;28;20037;-57
2023/01/18 05:51:37;;;;;;;31.97;16.63;;;;;;;-3.32;98.06;99202.31;5023375;28;20103;-58
2023/01/18 05:54:02;;;;;;;30.03;17.57;;;;;;;-3.32;98.42;99210.09;5021865;28;20037;-56
2023/01/18 05:56:28;;;;;;;31.53;17.27;;;;;;;-3.33;97.89;99213.59;5023758;28;20059;-56
2023/01/18 05:58:53;;;;;;;26.77;17.03;;;;;;;-3.33;98.47;99217.03;5020012;28;20041;-57
2023/01/18 06:01:19;;;;;;;31.80;18.43;;;;;;;-3.33;98.34;99218.78;5019124;28;20044;-56
2023/01/18 06:03:44;;;;;;;31.10;17.47;;;;;;;-3.33;98.58;99216.19;5021725;28;20041;-57
2023/01/18 06:06:10;;;;;;;34.53;18.50;;;;;;;-3.31;98.47;99216.91;5019587;28;20029;-57
2023/01/18 06:08:35;;;;;;;31.90;18.13;;;;;;;-3.33;98.41;99221.38;5023455;28;20491;-59
2023/01/18 06:11:01;;;;;;;30.17;18.37;;;;;;;-3.33;98.46;99221.38;5021478;28;20034;-54
2023/01/18 06:13:29;;;;;;;29.70;18.63;;;;;;;-3.32;98.39;99225.63;5025282;28;20037;-56
2023/01/18 06:15:56;;;;;;;29.70;18.27;;;;;;;-3.33;98.35;99231.72;5022984;28;20096;-57
2023/01/18 06:18:23;;;;;;;33.83;18.27;;;;;;;-3.33;98.55;99234.31;5016759;28;20022;-57
2023/01/18 06:20:53;;;;;;;30.77;18.30;;;;;;;-3.36;98.30;99234.56;5021377;28;20030;-56
2023/01/18 06:23:18;;;;;;;32.77;19.30;;;;;;;-3.35;98.00;99241.41;5023601;28;20104;-57
2023/01/18 06:25:44;;;;;;;32.47;19.07;;;;;;;-3.34;98.59;99245.63;5015698;28;20121;-56
2023/01/18 06:28:09;;;;;;;32.43;18.10;;;;;;;-3.35;98.35;99244.84;5021658;28;20029;-57
2023/01/18 06:30:34;;;;;;;31.87;18.50;;;;;;;-3.34;98.22;99261.19;5022635;28;20104;-57
2023/01/18 06:33:05;;;;;;;31.93;18.97;;;;;;;-3.36;98.44;99255.31;5021888;28;20040;-57
2023/01/18 06:35:32;;;;;;;33.77;20.23;;;;;;;-3.36;98.66;99268.25;5027224;28;20025;-57
2023/01/18 06:37:58;;;;;;;33.50;18.83;;;;;;;-3.40;98.62;99263.28;5025443;28;20025;-56
2023/01/18 06:40:23;;;;;;;29.87;18.47;;;;;;;-3.38;98.64;99269.22;5027054;28;20052;-57
2023/01/18 06:42:48;;;;;;;34.47;19.40;;;;;;;-3.38;98.77;99263.19;5024851;28;20068;-56
2023/01/18 06:45:16;;;;;;;35.47;18.67;;;;;;;-3.40;98.74;99263.28;5026162;28;20461;-57
2023/01/18 06:47:42;;;;;;;32.80;19.07;;;;;;;-3.39;98.90;99266.72;5027175;28;20048;-57
2023/01/18 06:50:09;;;;;;;32.00;19.27;;;;;;;-3.41;98.62;99279.78;5022399;28;20029;-57
2023/01/18 06:52:34;;;;;;;33.87;19.20;;;;;;;-3.40;98.60;99280.63;5027337;28;20104;-56
2023/01/18 06:55:00;;;;;;;32.40;18.90;;;;;;;-3.41;98.70;99282.38;5022074;28;20029;-57
2023/01/18 06:57:25;;;;;;;32.17;18.83;;;;;;;-3.39;98.87;99290.84;5024095;28;20457;-57
2023/01/18 06:59:52;;;;;;;35.20;19.23;;;;;;;-3.41;99.00;99292.75;5027262;28;20052;-56
2023/01/18 07:02:19;;;;;;;33.30;19.03;;;;;;;-3.40;99.06;99296.16;5028181;28;20117;-56
2023/01/18 07:04:44;;;;;;;32.83;19.37;;;;;;;-3.42;99.03;99293.69;5027505;28;20029;-57
2023/01/18 07:07:11;;;;;;;34.63;19.00;;;;;;;-3.40;99.21;99307.34;5027124;28;20034;-56
2023/01/18 07:09:36;;;;;;;32.53;19.43;;;;;;;-3.39;99.28;99314.19;5023036;28;20065;-56
2023/01/18 07:12:02;;;;;;;35.00;19.10;;;;;;;-3.40;99.19;99302.16;5024778;28;20480;-58
2023/01/18 07:14:27;;;;;;;31.03;18.70;;;;;;;-3.41;99.31;99313.47;5027958;28;20037;-56
2023/01/18 07:16:53;;;;;;;33.67;19.07;;;;;;;-3.39;99.09;99309.00;5025642;28;20520;-55
2023/01/18 07:19:18;;;;;;;34.10;18.90;;;;;;;-3.41;99.25;99310.88;5033746;28;20047;-58
2023/01/18 07:21:44;;;;;;;31.77;19.23;;;;;;;-3.38;99.15;99315.03;5024445;28;20064;-56
2023/01/18 07:24:10;;;;;;;29.63;18.30;;;;;;;-3.40;99.24;99320.31;5033614;28;20048;-56
2023/01/18 07:26:35;;;;;;;34.47;18.80;;;;;;;-3.41;99.35;99326.44;5030393;28;20033;-55
2023/01/18 07:29:00;;;;;;;34.00;18.43;;;;;;;-3.40;99.55;99330.69;5029902;28;20085;-56
2023/01/18 07:31:26;;;;;;;29.03;17.97;;;;;;;-3.40;99.70;99322.91;5027259;28;20376;-57
2023/01/18 07:33:51;;;;;;;33.53;18.83;;;;;;;-3.41;99.17;99323.84;5032297;28;20037;-57
2023/01/18 07:36:17;;;;;;;32.13;18.77;;;;;;;-3.42;99.21;99323.94;5028412;28;20412;-57
2023/01/18 07:38:43;;;;;;;34.10;18.97;;;;;;;-3.42;99.56;99326.53;5031890;28;20100;-56
2023/01/18 07:41:13;;;;;;;34.27;19.50;;;;;;;-3.44;99.60;99336.19;5022640;28;20030;-57
2023/01/18 07:43:39;;;;;;;35.17;19.60;;;;;;;-3.42;99.55;99332.56;5016486;28;20049;-56
2023/01/18 07:46:06;;;;;;;29.97;18.20;;;;;;;-3.41;99.74;99331.63;5025918;28;20046;-56
2023/01/18 07:48:31;;;;;;;28.33;18.50;;;;;;;-3.44;99.57;99331.84;5026767;28;20111;-57
2023/01/18 07:51:02;;;;;;;29.13;18.33;;;;;;;-3.41;99.41;99342.00;5023028;28;20486;-56
2023/01/18 07:53:29;;;;;;;29.10;18.03;;;;;;;-3.38;99.60;99346.13;5031387;28;20041;-57
2023/01/18 07:55:58;;;;;;;31.97;18.60;;;;;;;-3.37;99.37;99342.59;5025584;28;20039;-59
2023/01/18 07:58:24;;;;;;;28.73;17.30;;;;;;;-3.36;99.33;99348.63;5030110;28;20033;-58
2023/01/18 08:00:49;;;;;;;29.70;17.73;;;;;;;-3.38;99.55;99348.72;5026536;28;20037;-59
2023/01/18 08:03:16;;;;;;;32.07;18.33;;;;;;;-3.36;99.70;99348.63;5033066;28;20452;-59
2023/01/18 08:05:43;;;;;;;32.53;18.17;;;;;;;-3.32;99.75;99357.84;5021048;28;20034;-59
2023/01/18 08:08:10;;;;;;;32.23;18.03;;;;;;;-3.33;99.47;99361.34;5032797;28;20037;-59
2023/01/18 08:10:36;;;;;;;31.73;18.70;;;;;;;-3.32;99.37;99368.22;5029605;28;20095;-56
2023/01/18 08:13:02;;;;;;;29.10;17.77;;;;;;;-3.30;99.38;99358.56;5030732;28;20037;-57
2023/01/18 08:15:28;;;;;;;30.93;17.77;;;;;;;-3.27;99.62;99366.09;5031414;28;20432;-57
2023/01/18 08:17:54;;;;;;;31.10;18.60;;;;;;;-3.28;99.41;99369.63;5027930;28;20038;-57
2023/01/18 08:20:20;;;;;;;31.03;17.53;;;;;;;-3.26;99.21;99370.38;5020462;28;20043;-57
2023/01/18 08:22:46;;;;;;;31.23;18.00;;;;;;;-3.25;99.55;99366.84;5027743;28;20061;-57
2023/01/18 08:25:11;;;;;;;31.60;18.23;;;;;;;-3.23;99.49;99375.34;5014292;28;20131;-56
2023/01/18 08:27:37;;;;;;;28.20;17.40;;;;;;;-3.19;99.67;99381.13;5019453;28;20097;-58
2023/01/18 08:30:04;;;;;;;35.93;18.87;;;;;;;-3.21;99.30;99373.44;5031931;28;20033;-58
2023/01/18 08:32:29;;;;;;;29.40;17.90;;;;;;;-3.17;99.62;99374.91;5031374;28;20021;-58
2023/01/18 08:34:55;;;;;;;27.73;17.33;;;;;;;-3.15;99.40;99373.00;5029077;28;20500;-58
2023/01/18 08:37:22;;;;;;;31.37;17.87;;;;;;;-3.11;99.53;99389.22;5024300;28;20035;-57
2023/01/18 08:39:48;;;;;;;30.73;17.83;;;;;;;-3.09;99.55;99389.06;5019938;28;20466;-57
2023/01/18 08:42:13;;;;;;;29.80;17.27;;;;;;;-3.08;99.46;99398.50;5025531;28;20068;-56
2023/01/18 08:44:38;;;;;;;29.53;17.53;;;;;;;-3.06;99.48;99400.06;5023507;28;20029;-58
2023/01/18 08:47:04;;;;;;;34.63;18.23;;;;;;;-3.03;99.64;99404.19;5030974;28;20045;-57
2023/01/18 08:49:31;;;;;;;28.43;17.67;;;;;;;-3.01;99.64;99404.94;5018178;28;20034;-56
2023/01/18 08:51:57;;;;;;;28.47;18.10;;;;;;;-3.00;99.66;99414.38;5023534;28;20068;-60
2023/01/18 08:54:23;;;;;;;30.63;17.77;;;;;;;-2.95;99.78;99425.25;5031362;28;20038;-57
2023/01/18 08:56:50;;;;;;;30.23;17.67;;;;;;;-2.90;99.46;99420.56;5026844;28;20033;-57
2023/01/18 08:59:15;;;;;;;31.77;17.90;;;;;;;-2.87;99.76;99424.69;5030295;28;20469;-56
2023/01/18 09:01:40;;;;;;;31.27;17.90;;;;;;;-2.84;99.54;99422.72;5032219;28;20083;-60
2023/01/18 09:04:06;;;;;;;27.67;17.40;;;;;;;-2.79;99.35;99421.53;5026822;28;20037;-58
2023/01/18 09:06:32;;;;;;;29.87;17.93;;;;;;;-2.76;99.81;99427.34;5025595;28;20025;-58
2023/01/18 09:08:58;;;;;;;27.40;16.83;;;;;;;-2.74;99.22;99422.88;5024112;28;20104;-57
2023/01/18 09:11:23;;;;;;;29.13;16.57;;;;;;;-2.71;99.30;99427.03;5022906;28;20424;-57
2023/01/18 09:13:53;;;;;;;27.90;16.87;;;;;;;-2.76;99.34;99416.97;5023239;28;20026;-57
2023/01/18 09:16:20;;;;;;;27.37;16.33;;;;;;;-2.66;99.14;99430.13;5027306;28;20037;-57
2023/01/18 09:18:45;;;;;;;27.30;16.53;;;;;;;-2.61;99.08;99433.19;5016986;28;20040;-57
2023/01/18 09:21:12;;;;;;;26.57;15.73;;;;;;;-2.58;99.24;99427.78;5027858;28;20033;-57
2023/01/18 09:23:39;;;;;;;29.67;16.37;;;;;;;-2.53;98.88;99442.22;5029185;28;20029;-58
2023/01/18 09:26:09;;;;;;;28.47;17.00;;;;;;;-2.47;99.29;99454.75;5028857;28;20034;-57
2023/01/18 09:28:35;;;;;;;25.73;15.77;;;;;;;-2.41;99.06;99459.50;5019326;28;20033;-57
2023/01/18 09:31:01;;;;;;;26.47;15.20;;;;;;;-2.35;99.01;99455.59;5027008;28;20034;-58
2023/01/18 09:33:27;;;;;;;26.60;15.53;;;;;;;-2.27;98.36;99452.44;5026939;28;20104;-56
2023/01/18 09:35:54;;;;;;;25.20;14.63;;;;;;;-2.16;98.45;99457.69;5024911;28;20456;-57
2023/01/18 09:38:20;;;;;;;28.07;16.70;;;;;;;-2.14;98.39;99461.00;5014273;28;20069;-57
2023/01/18 09:40:46;;;;;;;26.93;15.40;;;;;;;-2.06;98.22;99463.84;5022722;28;20065;-57
2023/01/18 09:43:27;;;;;;;26.73;15.27;;;;;;;-1.99;97.80;99466.00;5018076;28;20465;-57
2023/01/18 09:45:52;;;;;;;26.03;15.27;;;;;;;-1.90;97.76;99473.94;5018252;28;20448;-58
2023/01/18 09:48:29;;;;;;;25.07;15.00;;;;;;;-1.82;97.82;99475.94;5030335;28;20041;-57
2023/01/18 09:50:59;;;;;;;25.17;15.40;;;;;;;-1.76;97.65;99479.88;5020257;28;20057;-57
2023/01/18 09:53:53;;;;;;;23.57;14.30;;;;;;;-1.66;97.54;99490.41;5021122;28;20029;-58
2023/01/18 09:56:30;;;;;;;25.03;15.23;;;;;;;-1.64;97.96;99478.09;5023643;28;20037;-58
2023/01/18 09:59:12;;;;;;;24.40;15.10;;;;;;;-1.55;97.76;99481.78;5028349;28;20037;-57
2023/01/18 10:01:37;;;;;;;23.10;15.10;;;;;;;-1.47;97.30;99489.00;5027423;28;20481;-57
2023/01/18 10:04:35;;;;;;;24.80;15.27;;;;;;;-1.38;97.84;99480.50;5026088;28;20036;-57
2023/01/18 10:07:15;;;;;;;26.03;16.13;;;;;;;-1.37;97.89;99476.94;5028600;28;20021;-57
2023/01/18 10:09:48;;;;;;;23.40;14.97;;;;;;;-1.32;98.00;99482.63;5018257;28;20041;-57
2023/01/18 10:12:13;;;;;;;27.13;15.23;;;;;;;-1.24;97.92;99495.03;5029032;28;20110;-58
2023/01/18 10:14:46;;;;;;;23.60;14.80;;;;;;;-1.18;98.03;99489.34;5028283;28;20049;-56
2023/01/18 10:17:16;;;;;;;23.10;14.85;;;;;;;-1.09;98.06;99498.22;5017843;28;20038;-58
2023/01/18 10:19:43;;;;;;;23.60;14.13;;;;;;;-1.02;97.27;99498.56;5017732;28;20038;-57
2023/01/18 10:22:23;;;;;;;22.93;14.53;;;;;;;-0.97;97.17;99492.09;5030577;28;20048;-57
2023/01/18 10:25:01;;;;;;;22.67;14.20;;;;;;;-0.90;96.99;99492.41;5028222;28;20045;-58
2023/01/18 10:27:59;;;;;;;22.20;14.03;;;;;;;-0.82;96.85;99504.81;5017629;28;20069;-57
2023/01/18 10:30:44;;;;;;;23.87;14.57;;;;;;;-0.74;96.94;99499.84;5003721;28;20048;-57
2023/01/18 10:33:17;;;;;;;22.37;14.20;;;;;;;-0.70;96.07;99503.84;5024575;28;20410;-57
2023/01/18 10:35:47;;;;;;;20.75;14.07;;;;;;;-0.60;95.87;99501.34;5016717;28;20068;-57
2023/01/18 10:38:17;;;;;;;22.60;14.27;;;;;;;-0.59;95.72;99496.97;5029314;28;20033;-56
2023/01/18 10:40:48;;;;;;;25.60;14.67;;;;;;;-0.56;96.17;99504.53;5029205;28;20029;-56
2023/01/18 10:43:19;;;;;;;22.80;14.67;;;;;;;-0.49;96.07;99499.66;5018914;28;20034;-56
2023/01/18 10:45:44;;;;;;;24.10;13.90;;;;;;;-0.45;95.76;99504.50;5028504;28;20050;-56
2023/01/18 10:48:16;;;;;;;20.63;14.07;;;;;;;-0.39;96.03;99499.75;5013407;28;20159;-57
2023/01/18 10:50:44;;;;;;;23.93;14.70;;;;;;;-0.34;96.43;99502.81;5028757;28;20041;-56
2023/01/18 10:53:23;;;;;;;24.07;14.50;;;;;;;-0.27;95.96;99493.56;5031033;28;20741;-57
2023/01/18 10:55:58;;;;;;;21.87;13.63;;;;;;;-0.19;95.22;99501.56;5030990;28;20033;-57
2023/01/18 10:58:42;;;;;;;25.17;13.90;;;;;;;-0.14;94.89;99499.41;5029621;28;20117;-58
2023/01/18 11:01:15;;;;;;;24.47;13.70;;;;;;;-0.04;94.54;99498.66;5018626;28;20042;-57
2023/01/18 11:03:46;;;;;;;23.10;13.43;;;;;;;-0.03;94.81;99503.75;5024467;28;20036;-57
2023/01/18 11:06:15;;;;;;;20.53;11.43;;;;;;;0.06;94.05;99510.00;5020963;28;20022;-55
2023/01/18 11:08:41;;;;;;;22.53;13.30;;;;;;;0.09;93.60;99503.69;5024706;28;20037;-56
2023/01/18 11:11:18;;;;;;;21.53;13.13;;;;;;;0.10;94.83;99507.97;5024981;28;20021;-55
2023/01/18 11:13:47;;;;;;;22.37;13.20;;;;;;;0.16;93.77;99511.84;5028033;28;20033;-56
2023/01/18 11:16:22;;;;;;;25.13;12.87;;;;;;;0.23;93.67;99510.38;5030900;28;20034;-57
2023/01/18 11:18:56;;;;;;;20.27;12.63;;;;;;;0.29;92.93;99515.06;5029682;28;20401;-56
2023/01/18 11:21:23;;;;;;;21.40;12.30;;;;;;;0.31;93.16;99515.78;5033016;28;20793;-56
2023/01/18 11:23:50;;;;;;;20.80;12.50;;;;;;;0.33;93.24;99516.47;5030969;28;20094;-57
2023/01/18 11:26:18;;;;;;;20.27;12.90;;;;;;;0.39;93.17;99521.19;5026551;28;20042;-57
2023/01/18 11:28:45;;;;;;;25.43;13.37;;;;;;;0.45;93.16;99512.00;5028635;28;20157;-57
2023/01/18 11:31:20;;;;;;;20.60;12.53;;;;;;;0.50;93.28;99507.22;5029906;28;20037;-57
2023/01/18 11:34:00;;;;;;;20.63;12.40;;;;;;;0.56;92.95;99505.91;5027653;28;20046;-57
2023/01/18 11:36:35;;;;;;;19.53;10.90;;;;;;;0.58;92.28;99504.00;5025658;28;20061;-56
2023/01/18 11:39:16;;;;;;;21.57;12.17;;;;;;;0.65;91.96;99505.13;5017912;28;20064;-57
2023/01/18 11:41:42;;;;;;;20.57;12.33;;;;;;;0.68;92.84;99503.22;5025775;28;20056;-57
2023/01/18 11:44:21;;;;;;;21.80;12.57;;;;;;;0.70;92.20;99502.13;5026763;28;20488;-56
2023/01/18 11:46:50;;;;;;;18.93;11.63;;;;;;;0.76;92.14;99503.38;5024189;28;20049;-56
2023/01/18 11:50:12;;;;;;;21.97;12.03;;;;;;;0.80;92.60;99502.19;5021673;28;20029;-57
2023/01/18 11:52:49;;;;;;;19.87;11.73;;;;;;;0.82;91.45;99500.25;5003249;28;20125;-57
2023/01/18 11:55:35;;;;;;;17.10;10.77;;;;;;;0.90;90.92;99505.63;5029673;28;20382;-57
2023/01/18 11:58:04;;;;;;;19.90;11.20;;;;;;;0.94;91.26;99509.63;5025674;28;20083;-57